Time;durP1;ratioP1;P1;durP2;ratioP2;P2;SDS_P1;SDS_P2;PMS_P1;PMS_P2;Temp;Humidity;BMP_temperature;BMP_pressure;BME280_temperature;BME280_humidity;BME280_pressure;Samples;Min_cycle;Max_cycle;Signal;HPM_P1;HPM_P2
2022/02/24 00:13:48;;;;;;;28.28;9.75;;;;;;;3.91;87.14;100974.98;713220;1174;114490;-75
2022/02/24 00:28:50;;;;;;;26.60;10.05;;;;;;;3.79;87.33;100987.63;713276;1174;115239;-76
2022/02/24 00:43:53;;;;;;;33.35;9.78;;;;;;;3.76;88.44;100977.41;713501;1174;114509;-76
2022/02/24 00:58:55;;;;;;;25.97;11.00;;;;;;;3.75;87.78;100965.34;713007;1174;115074;-76
2022/02/24 01:13:57;;;;;;;27.35;10.68;;;;;;;3.66;87.87;100970.97;712975;1174;114679;-75
2022/02/24 01:29:03;;;;;;;28.15;9.58;;;;;;;3.69;87.98;100972.58;713154;1174;114127;-75
2022/02/24 01:44:13;;;;;;;23.88;7.88;;;;;;;3.61;87.71;100955.61;712996;1174;114325;-75
2022/02/24 01:59:16;;;;;;;24.13;7.30;;;;;;;3.63;88.74;100934.80;713390;1174;114233;-78
2022/02/24 02:14:18;;;;;;;24.03;8.85;;;;;;;3.53;88.72;100933.56;713139;1173;115020;-76
2022/02/24 02:29:20;;;;;;;23.85;9.05;;;;;;;3.41;89.11;100920.25;713508;1174;114553;-76
2022/02/24 02:44:22;;;;;;;280.90;77.43;;;;;;;3.31;90.05;100917.27;713115;1174;114533;-76
2022/02/24 02:59:24;;;;;;;281.47;71.90;;;;;;;3.14;89.57;100907.69;713092;1174;115071;-76
2022/02/24 03:14:27;;;;;;;42.68;17.68;;;;;;;3.11;89.96;100902.63;713332;1174;115265;-75
2022/02/24 03:29:29;;;;;;;34.53;11.40;;;;;;;3.03;90.13;100912.53;713161;1174;114648;-75
2022/02/24 03:44:31;;;;;;;29.90;10.03;;;;;;;3.08;90.83;100896.77;713192;1174;115148;-75
2022/02/24 03:59:34;;;;;;;24.13;10.15;;;;;;;2.90;90.68;100882.91;712965;1173;114886;-75
2022/02/24 04:14:37;;;;;;;46.53;15.63;;;;;;;2.83;91.55;100861.63;713237;1174;115122;-74
2022/02/24 04:29:41;;;;;;;94.73;31.63;;;;;;;2.71;91.66;100875.98;713029;1174;114394;-75
2022/02/24 04:44:45;;;;;;;45.65;17.25;;;;;;;2.65;91.38;100863.30;713049;1174;114703;-74
2022/02/24 04:59:50;;;;;;;31.47;13.67;;;;;;;2.50;92.06;100852.72;713063;1174;114515;-75
2022/02/24 05:14:53;;;;;;;53.10;24.03;;;;;;;2.54;92.54;100856.02;713335;1174;115084;-76
2022/02/24 05:29:58;;;;;;;42.63;16.85;;;;;;;2.64;92.59;100857.29;713448;1174;114846;-76
2022/02/24 05:45:01;;;;;;;43.00;15.80;;;;;;;2.69;92.83;100853.64;713453;1174;114547;-76
2022/02/24 06:00:04;;;;;;;40.00;14.75;;;;;;;2.78;92.73;100846.27;713323;1174;115518;-79
2022/02/24 06:15:08;;;;;;;40.45;15.20;;;;;;;2.90;92.46;100841.44;713701;1174;114823;-77
2022/02/24 06:30:12;;;;;;;34.50;14.87;;;;;;;2.98;92.90;100821.17;713232;1174;113987;-71
2022/02/24 06:45:14;;;;;;;26.05;9.98;;;;;;;3.61;94.12;100802.52;713430;1174;115391;-71
2022/02/24 07:00:17;;;;;;;33.00;12.85;;;;;;;4.42;93.38;100812.20;713347;1174;115413;-71
2022/02/24 07:15:19;;;;;;;44.88;20.78;;;;;;;4.97;92.01;100792.69;714159;1174;114588;-74
2022/02/24 07:30:21;;;;;;;28.10;13.95;;;;;;;5.53;90.33;100789.53;714156;1174;115470;-77
2022/02/24 07:45:24;;;;;;;91.55;54.73;;;;;;;6.44;87.83;100778.84;715761;1174;116773;-81
2022/02/24 08:00:26;;;;;;;23.85;10.68;;;;;;;7.08;84.90;100756.55;715277;1174;113894;-81
2022/02/24 08:15:28;;;;;;;30.60;12.48;;;;;;;7.77;84.19;100751.91;715131;1174;115439;-76
2022/02/24 08:30:31;;;;;;;38.58;16.25;;;;;;;8.45;81.73;100743.71;714612;1174;115049;-76
2022/02/24 08:45:35;;;;;;;29.35;12.28;;;;;;;8.33;77.38;100729.74;714729;1173;115294;-75
2022/02/24 09:00:42;;;;;;;28.73;11.70;;;;;;;8.71;75.81;100692.16;713981;1174;113929;-75
2022/02/24 09:15:44;;;;;;;17.48;8.48;;;;;;;9.36;75.57;100671.60;714617;1174;117023;-75
2022/02/24 09:30:46;;;;;;;20.17;8.07;;;;;;;9.52;72.07;100654.72;714491;1174;115419;-75
2022/02/24 09:45:49;;;;;;;44.43;29.23;;;;;;;10.28;70.80;100634.67;714128;1173;115219;-75
2022/02/24 10:00:52;;;;;;;15.98;6.53;;;;;;;10.90;68.28;100610.41;714783;1174;114986;-75
2022/02/24 10:16:02;;;;;;;13.73;5.70;;;;;;;11.33;65.89;100583.94;718672;1174;114654;-75
2022/02/24 10:31:08;;;;;;;36.28;9.85;;;;;;;11.62;64.94;100538.53;713953;1174;115149;-75
2022/02/24 10:46:17;;;;;;;112.90;47.30;;;;;;;12.29;64.21;100509.80;714666;1174;115255;-75
2022/02/24 11:01:24;;;;;;;;;;;;;;;12.24;60.26;100479.63;714519;1174;117609;-75
2022/02/24 11:16:28;;;;;;;20.13;6.05;;;;;;;12.47;58.65;100453.80;714999;1174;100277;-83
2022/02/24 11:32:08;;;;;;;26.13;9.63;;;;;;;12.44;58.21;100404.11;715799;1173;115418;-73
2022/02/24 11:47:12;;;;;;;25.43;10.63;;;;;;;12.86;57.35;100374.68;714248;1173;114930;-76
2022/02/24 12:02:18;;;;;;;26.38;11.18;;;;;;;13.40;56.70;100334.41;715340;1174;115182;-80
2022/02/24 12:17:23;;;;;;;14.17;6.93;;;;;;;13.52;55.78;100292.83;716962;1173;115056;-76
2022/02/24 12:32:40;;;;;;;10.40;4.75;;;;;;;13.35;56.15;100255.77;716396;1174;114131;-75
2022/02/24 12:47:42;;;;;;;15.10;5.43;;;;;;;12.31;55.67;100228.19;713347;1174;114177;-76
2022/02/24 13:02:44;;;;;;;16.17;6.47;;;;;;;13.14;56.56;100182.37;713102;1174;114656;-76
2022/02/24 13:17:50;;;;;;;11.45;6.03;;;;;;;13.37;54.92;100148.47;713298;1174;114032;-76
2022/02/24 13:33:00;;;;;;;13.68;9.88;;;;;;;13.69;53.54;100101.34;713467;1174;114281;-77
2022/02/24 13:48:08;;;;;;;18.48;7.15;;;;;;;15.27;52.64;100075.58;713816;1174;114978;-78
2022/02/24 14:03:11;;;;;;;17.93;7.25;;;;;;;18.36;50.02;100057.13;713126;1174;114633;-78
2022/02/24 14:18:20;;;;;;;27.55;14.23;;;;;;;13.79;52.25;100054.55;713376;1174;115602;-76
2022/02/24 14:33:23;;;;;;;61.88;29.33;;;;;;;12.60;54.91;100009.61;713106;1174;115639;-76
2022/02/24 14:48:28;;;;;;;25.93;13.43;;;;;;;12.19;56.99;99983.01;713397;1174;115031;-77
2022/02/24 15:03:31;;;;;;;64.20;23.88;;;;;;;11.28;58.28;99934.90;713185;1174;114499;-79
2022/02/24 15:18:33;;;;;;;22.08;10.28;;;;;;;10.72;59.86;99907.84;713315;1173;114086;-76
2022/02/24 15:33:36;;;;;;;24.45;10.65;;;;;;;10.33;60.62;99894.84;713060;1174;114467;-76
2022/02/24 15:48:40;;;;;;;34.27;16.93;;;;;;;10.07;60.98;99879.77;713238;1174;114577;-76
2022/02/24 16:03:43;;;;;;;28.63;16.20;;;;;;;9.93;62.05;99846.95;713493;1173;114032;-77
2022/02/24 16:18:46;;;;;;;19.68;8.45;;;;;;;9.77;62.72;99844.11;713381;1174;114291;-77
2022/02/24 16:33:48;;;;;;;33.80;16.35;;;;;;;9.52;62.51;99824.58;713804;1174;114821;-80
2022/02/24 16:48:53;;;;;;;32.30;13.95;;;;;;;9.42;63.84;99807.09;714359;1173;113905;-79
2022/02/24 17:03:55;;;;;;;46.05;16.38;;;;;;;9.33;63.71;99784.36;713929;1174;113808;-73
2022/02/24 17:18:58;;;;;;;26.80;12.65;;;;;;;9.27;64.22;99762.16;713867;1174;115272;-73
2022/02/24 17:34:01;;;;;;;23.95;10.28;;;;;;;9.18;64.13;99741.25;713525;1174;113848;-74
2022/02/24 17:49:03;;;;;;;33.30;15.43;;;;;;;8.94;64.52;99724.19;713317;1167;115038;-75
2022/02/24 18:04:06;;;;;;;85.18;43.70;;;;;;;8.83;65.65;99699.82;714224;1174;114114;-74
2022/02/24 18:19:08;;;;;;;74.48;21.53;;;;;;;8.73;65.36;99685.91;714493;1174;113967;-72
2022/02/24 18:34:10;;;;;;;59.77;20.10;;;;;;;8.54;66.36;99678.06;715952;1174;113763;-78
2022/02/24 18:49:13;;;;;;;39.73;14.93;;;;;;;8.39;67.26;99641.84;716492;1174;114253;-78
2022/02/24 19:04:16;;;;;;;39.15;15.15;;;;;;;8.47;66.95;99631.58;716832;1174;113725;-78
2022/02/24 19:19:18;;;;;;;29.23;12.08;;;;;;;8.63;66.17;99606.64;716298;1174;113842;-79
2022/02/24 19:34:21;;;;;;;21.03;8.17;;;;;;;8.75;65.72;99584.63;716488;1174;113840;-78
2022/02/24 19:49:24;;;;;;;21.60;9.78;;;;;;;8.87;67.14;99582.67;716538;1173;114583;-79
2022/02/24 20:04:26;;;;;;;15.05;7.65;;;;;;;9.01;65.97;99583.19;716613;1174;113691;-79
2022/02/24 20:19:33;;;;;;;52.43;25.55;;;;;;;8.95;66.84;99568.89;716785;1173;113770;-80
2022/02/24 20:34:36;;;;;;;23.57;10.43;;;;;;;8.74;66.99;99532.47;716008;1174;113943;-79
2022/02/24 20:49:39;;;;;;;29.78;13.40;;;;;;;8.22;68.10;99519.70;716336;1173;113745;-78
2022/02/24 21:04:42;;;;;;;27.40;13.20;;;;;;;7.98;69.35;99487.84;716421;1174;113676;-79
2022/02/24 21:19:44;;;;;;;21.33;10.40;;;;;;;8.08;69.77;99473.95;715985;1173;115235;-74
2022/02/24 21:34:46;;;;;;;18.57;9.43;;;;;;;8.12;71.02;99447.39;714438;1174;113236;-72
2022/02/24 21:49:48;;;;;;;22.48;10.35;;;;;;;8.33;70.88;99430.72;713648;1174;114462;-73
2022/02/24 22:04:51;;;;;;;21.03;10.48;;;;;;;8.45;70.15;99389.55;713643;1174;115226;-72
2022/02/24 22:19:53;;;;;;;17.67;7.63;;;;;;;8.48;71.81;99373.61;714209;1174;113912;-72
2022/02/24 22:34:56;;;;;;;16.15;7.30;;;;;;;8.57;71.65;99364.09;714730;1173;114793;-73
2022/02/24 22:49:58;;;;;;;11.90;6.85;;;;;;;8.60;71.68;99329.80;715161;1174;114286;-74
2022/02/24 23:20:22;;;;;;;17.13;9.10;;;;;;;8.73;72.18;99304.13;714692;1174;115185;-73
2022/02/24 23:35:24;;;;;;;15.38;8.80;;;;;;;8.65;73.75;99285.73;714276;1174;114335;-72
2022/02/24 23:50:27;;;;;;;41.90;13.75;;;;;;;8.73;74.11;99287.63;713897;1174;115116;-73
